Time;durP1;ratioP1;P1;durP2;ratioP2;P2;SDS_P1;SDS_P2;PMS_P1;PMS_P2;Temp;Humidity;BMP_temperature;BMP_pressure;BME280_temperature;BME280_humidity;BME280_pressure;Samples;Min_cycle;Max_cycle;Signal;HPM_P1;HPM_P2
2021/07/10 00:00:46;;;;;;;;;;;;;;;27.28;41.90;97807.59;5048970;28;1105;-51
2021/07/10 00:03:11;;;;;;;;;;;;;;;27.14;42.28;97816.66;5051317;28;1632;-50
2021/07/10 00:05:36;;;;;;;;;;;;;;;27.35;42.04;97805.28;5048522;28;1628;-51
2021/07/10 00:08:02;;;;;;;;;;;;;;;27.00;42.55;97806.31;5047278;28;1224;-50
2021/07/10 00:10:27;;;;;;;;;;;;;;;27.03;42.46;97797.28;5049614;28;1949;-51
2021/07/10 00:12:52;;;;;;;;;;;;;;;27.05;42.55;97803.31;5051626;28;1046;-52
2021/07/10 00:15:19;;;;;;;;;;;;;;;27.26;42.02;97799.78;5052028;28;1441;-52
2021/07/10 00:17:45;;;;;;;;;;;;;;;27.13;42.11;97788.50;5052351;28;1166;-51
2021/07/10 00:20:10;;;;;;;;;;;;;;;26.92;42.61;97791.03;5048457;28;1577;-51
2021/07/10 00:22:35;;;;;;;;;;;;;;;26.85;42.98;97784.56;5051094;28;1217;-51
2021/07/10 00:25:01;;;;;;;;;;;;;;;26.94;42.71;97790.94;5048613;28;1592;-51
2021/07/10 00:27:26;;;;;;;;;;;;;;;26.85;42.96;97799.59;5049696;28;1228;-52
2021/07/10 00:29:51;;;;;;;;;;;;;;;27.07;42.31;97796.94;5051903;28;1961;-50
2021/07/10 00:32:17;;;;;;;;;;;;;;;27.05;42.49;97800.69;5053120;28;1256;-50
2021/07/10 00:34:42;;;;;;;;;;;;;;;27.27;41.94;97797.97;5048507;28;1516;-52
2021/07/10 00:37:07;;;;;;;;;;;;;;;27.08;42.23;97792.47;5050821;28;1351;-51
2021/07/10 00:39:32;;;;;;;;;;;;;;;26.88;42.57;97794.91;5048830;28;1811;-50
2021/07/10 00:41:57;;;;;;;;;;;;;;;27.25;41.86;97792.81;5049394;28;1152;-50
2021/07/10 00:44:23;;;;;;;;;;;;;;;27.26;41.96;97788.34;5051696;28;1141;-51
2021/07/10 00:46:48;;;;;;;;;;;;;;;26.94;42.71;97790.94;5052603;28;1271;-51
2021/07/10 00:49:13;;;;;;;;;;;;;;;27.17;41.93;97797.84;5046915;28;1664;-52
2021/07/10 00:51:38;;;;;;;;;;;;;;;27.13;42.17;97788.50;5050779;28;1955;-51
2021/07/10 00:54:04;;;;;;;;;;;;;;;26.68;43.07;97790.34;5050762;28;1537;-51
2021/07/10 00:56:29;;;;;;;;;;;;;;;27.06;41.99;97786.47;5049207;28;1336;-51
2021/07/10 00:58:54;;;;;;;;;;;;;;;26.96;42.29;97784.53;5046643;28;1065;-51
2021/07/10 01:01:19;;;;;;;;;;;;;;;27.11;41.93;97793.09;5042354;28;1661;-50
2021/07/10 01:03:44;;;;;;;;;;;;;;;26.61;43.07;97784.72;5046369;28;1129;-51
2021/07/10 01:06:10;;;;;;;;;;;;;;;26.89;42.54;97785.16;5029550;28;1568;-52
2021/07/10 01:08:35;;;;;;;;;;;;;;;26.85;42.53;97789.84;5048776;28;1577;-52
2021/07/10 01:11:00;;;;;;;;;;;;;;;26.85;42.55;97778.41;5047721;28;1957;-52
2021/07/10 01:13:25;;;;;;;;;;;;;;;26.76;42.71;97784.47;5049410;28;1192;-50
2021/07/10 01:15:51;;;;;;;;;;;;;;;27.02;42.11;97790.28;5051203;28;1271;-52
2021/07/10 01:18:16;;;;;;;;;;;;;;;26.95;42.42;97784.69;5032816;28;1612;-51
2021/07/10 01:20:53;;;;;;;;;;;;;;;26.95;42.37;97776.72;5049565;28;1388;-51
2021/07/10 01:23:22;;;;;;;;;;;;;;;27.00;42.10;97782.47;5047178;28;1149;-51
2021/07/10 01:25:47;;;;;;;;;;;;;;;27.18;42.08;97786.34;5048780;28;1547;-50
2021/07/10 01:28:13;;;;;;;;;;;;;;;27.31;41.38;97791.44;5051586;28;998;-52
2021/07/10 01:30:39;;;;;;;;;;;;;;;27.24;41.62;97792.91;5049394;28;1967;-51
2021/07/10 01:33:04;;;;;;;;;;;;;;;27.19;41.67;97787.16;5047894;28;1557;-52
2021/07/10 01:35:29;;;;;;;;;;;;;;;27.07;42.26;97780.22;5049277;28;1756;-52
2021/07/10 01:37:54;;;;;;;;;;;;;;;27.17;42.14;97775.84;5048533;28;1632;-51
2021/07/10 01:40:20;;;;;;;;;;;;;;;27.20;41.62;97778.25;5048211;28;1601;-51
2021/07/10 01:42:45;;;;;;;;;;;;;;;27.22;41.91;97778.97;5050238;28;1228;-51
2021/07/10 01:45:10;;;;;;;;;;;;;;;26.94;42.19;97775.91;5051495;28;1275;-52
2021/07/10 01:47:36;;;;;;;;;;;;;;;27.03;42.32;97768.19;5046848;28;1517;-51
2021/07/10 01:50:01;;;;;;;;;;;;;;;27.11;42.16;97763.13;5047406;28;1911;-52
2021/07/10 01:52:27;;;;;;;;;;;;;;;27.27;41.30;97768.84;5046579;28;1344;-52
2021/07/10 01:54:52;;;;;;;;;;;;;;;26.94;42.28;97767.97;5047056;28;1557;-51
2021/07/10 01:57:18;;;;;;;;;;;;;;;27.12;42.00;97780.69;5047301;28;1464;-52
2021/07/10 01:59:43;;;;;;;;;;;;;;;27.09;42.07;97780.91;5049399;28;1153;-50
2021/07/10 02:02:08;;;;;;;;;;;;;;;27.10;41.76;97777.34;5048875;28;1575;-50
2021/07/10 02:04:43;;;;;;;;;;;;;;;26.86;42.30;97773.03;5047910;28;1598;-52
2021/07/10 02:07:08;;;;;;;;;;;;;;;27.07;41.89;97777.56;5044465;28;1649;-51
2021/07/10 02:09:35;;;;;;;;;;;;;;;27.03;42.05;97770.81;5045664;28;1533;-52
2021/07/10 02:12:00;;;;;;;;;;;;;;;26.94;42.31;97767.13;5044493;28;2005;-53
2021/07/10 02:14:26;;;;;;;;;;;;;;;26.99;41.90;97763.13;5048887;28;1459;-50
2021/07/10 02:16:51;;;;;;;;;;;;;;;27.07;41.96;97762.53;5045640;28;1366;-52
2021/07/10 02:19:17;;;;;;;;;;;;;;;26.75;42.34;97761.63;5049906;28;1597;-52
2021/07/10 02:21:42;;;;;;;;;;;;;;;26.83;42.46;97762.66;5046932;28;1539;-51
2021/07/10 02:24:07;;;;;;;;;;;;;;;26.96;41.83;97759.88;5047452;28;1497;-51
2021/07/10 02:26:33;;;;;;;;;;;;;;;26.90;42.32;97758.56;5049979;28;1472;-50
2021/07/10 02:28:58;;;;;;;;;;;;;;;27.11;41.62;97752.53;5044663;28;1199;-51
2021/07/10 02:31:23;;;;;;;;;;;;;;;27.01;42.11;97747.09;5048146;28;1964;-51
2021/07/10 02:33:49;;;;;;;;;;;;;;;26.98;41.81;97736.78;5048262;28;1062;-51
2021/07/10 02:36:14;;;;;;;;;;;;;;;26.89;41.99;97741.00;5048377;28;1501;-51
2021/07/10 02:38:39;;;;;;;;;;;;;;;27.29;41.02;97739.59;5046153;28;1652;-52
2021/07/10 02:41:04;;;;;;;;;;;;;;;27.02;42.21;97724.97;5049348;28;1160;-52
2021/07/10 02:43:29;;;;;;;;;;;;;;;27.06;41.90;97736.19;5045118;28;1277;-53
2021/07/10 02:45:55;;;;;;;;;;;;;;;27.16;41.79;97737.09;5047408;28;1244;-52
2021/07/10 02:48:20;;;;;;;;;;;;;;;27.04;41.97;97728.38;5044952;28;1632;-50
2021/07/10 02:50:45;;;;;;;;;;;;;;;26.93;41.89;97731.84;5048529;28;1976;-51
2021/07/10 02:53:10;;;;;;;;;;;;;;;26.94;41.96;97724.78;5045699;28;1258;-52
2021/07/10 02:55:36;;;;;;;;;;;;;;;26.94;42.19;97722.97;5048562;28;1604;-51
2021/07/10 02:58:01;;;;;;;;;;;;;;;27.06;41.71;97722.94;5047399;28;1455;-50
2021/07/10 03:00:26;;;;;;;;;;;;;;;26.94;42.14;97728.25;5046676;28;1184;-51
2021/07/10 03:02:52;;;;;;;;;;;;;;;27.10;41.63;97727.88;5046046;28;1568;-53
2021/07/10 03:05:17;;;;;;;;;;;;;;;27.15;41.67;97730.97;5045703;28;1412;-51
2021/07/10 03:07:42;;;;;;;;;;;;;;;27.08;41.44;97727.13;5044906;28;1814;-52
2021/07/10 03:10:12;;;;;;;;;;;;;;;27.26;41.38;97728.28;5047949;28;1883;-51
2021/07/10 03:12:37;;;;;;;;;;;;;;;26.61;42.62;97730.97;5045899;28;1464;-51
2021/07/10 03:15:02;;;;;;;;;;;;;;;27.24;41.18;97732.00;5046365;28;1347;-51
2021/07/10 03:17:28;;;;;;;;;;;;;;;27.08;41.52;97727.13;5046798;28;1313;-50
2021/07/10 03:19:53;;;;;;;;;;;;;;;27.01;41.76;97736.50;5043844;28;1572;-52
2021/07/10 03:22:18;;;;;;;;;;;;;;;27.00;42.01;97730.38;5047734;28;1365;-51
2021/07/10 03:24:43;;;;;;;;;;;;;;;27.05;41.72;97731.84;5047999;28;1604;-51
2021/07/10 03:27:10;;;;;;;;;;;;;;;27.02;41.88;97738.22;5046015;28;1487;-51
2021/07/10 03:29:35;;;;;;;;;;;;;;;27.23;41.48;97735.63;5048568;28;1160;-51
2021/07/10 03:32:00;;;;;;;;;;;;;;;27.10;41.62;97735.81;5045239;28;1902;-51
2021/07/10 03:34:25;;;;;;;;;;;;;;;26.85;41.98;97738.72;5030838;28;1205;-51
2021/07/10 03:36:51;;;;;;;;;;;;;;;26.98;41.74;97734.13;5049504;28;1384;-50
2021/07/10 03:39:16;;;;;;;;;;;;;;;26.86;42.06;97733.34;5050743;28;1524;-51
2021/07/10 03:41:41;;;;;;;;;;;;;;;26.99;41.73;97730.50;5050896;28;1180;-52
2021/07/10 03:44:06;;;;;;;;;;;;;;;27.18;41.45;97721.94;5050891;28;1505;-51
2021/07/10 03:46:32;;;;;;;;;;;;;;;27.01;41.60;97728.56;5053650;28;1371;-51
2021/07/10 03:48:57;;;;;;;;;;;;;;;27.13;41.89;97721.47;5053102;28;1110;-52
2021/07/10 03:51:24;;;;;;;;;;;;;;;27.18;41.37;97721.94;5048528;28;1898;-51
2021/07/10 03:53:49;;;;;;;;;;;;;;;26.97;41.76;97729.81;5050843;28;1568;-51
2021/07/10 03:56:15;;;;;;;;;;;;;;;27.12;41.43;97727.75;5049760;28;1268;-51
2021/07/10 03:58:40;;;;;;;;;;;;;;;27.05;41.47;97727.41;5050957;28;1440;-51
2021/07/10 04:01:05;;;;;;;;;;;;;;;27.17;41.53;97728.19;5048709;28;1396;-52
2021/07/10 04:03:30;;;;;;;;;;;;;;;27.29;40.96;97726.34;5047730;28;1560;-52
2021/07/10 04:05:56;;;;;;;;;;;;;;;27.02;41.61;97722.34;5046997;28;1560;-52
2021/07/10 04:08:21;;;;;;;;;;;;;;;27.02;41.67;97717.03;5050431;28;1177;-50
2021/07/10 04:10:46;;;;;;;;;;;;;;;27.28;41.32;97725.50;5051303;28;1883;-52
2021/07/10 04:13:11;;;;;;;;;;;;;;;26.99;41.64;97717.28;5048946;28;1549;-50
2021/07/10 04:15:37;;;;;;;;;;;;;;;27.17;41.57;97714.94;5050413;28;1379;-52
2021/07/10 04:18:02;;;;;;;;;;;;;;;26.98;41.71;97710.31;5049394;28;1368;-51
2021/07/10 04:20:27;;;;;;;;;;;;;;;27.06;41.74;97720.31;5048069;28;1550;-51
2021/07/10 04:22:52;;;;;;;;;;;;;;;27.18;41.39;97724.59;5047028;28;1643;-52
2021/07/10 04:25:18;;;;;;;;;;;;;;;27.25;41.22;97723.09;5050646;28;1687;-51
2021/07/10 04:27:44;;;;;;;;;;;;;;;27.15;41.32;97730.13;5051488;28;1250;-51
2021/07/10 04:30:10;;;;;;;;;;;;;;;27.26;41.21;97725.63;5047204;28;1969;-52
2021/07/10 04:32:35;;;;;;;;;;;;;;;27.19;41.14;97721.81;5031533;28;1620;-52
2021/07/10 04:35:00;;;;;;;;;;;;;;;27.23;41.52;97725.88;5047457;28;1293;-51
2021/07/10 04:37:25;;;;;;;;;;;;;;;27.10;41.62;97724.38;5048067;28;1460;-52
2021/07/10 04:39:50;;;;;;;;;;;;;;;27.08;41.66;97726.31;5048460;28;1531;-50
2021/07/10 04:42:16;;;;;;;;;;;;;;;27.06;41.48;97722.94;5048389;28;1710;-51
2021/07/10 04:44:41;;;;;;;;;;;;;;;27.06;41.59;97723.78;5051666;28;1359;-50
2021/07/10 04:47:06;;;;;;;;;;;;;;;27.14;41.55;97731.09;5045233;28;1655;-51
2021/07/10 04:49:31;;;;;;;;;;;;;;;27.20;41.30;97733.25;5050345;28;1240;-51
2021/07/10 04:51:57;;;;;;;;;;;;;;;27.29;40.97;97729.84;5047277;28;1918;-50
2021/07/10 04:54:22;;;;;;;;;;;;;;;27.19;41.31;97731.56;5047751;28;1577;-51
2021/07/10 04:56:47;;;;;;;;;;;;;;;27.16;41.39;97730.00;5050218;28;1435;-51
2021/07/10 04:59:12;;;;;;;;;;;;;;;27.06;41.70;97728.25;5030679;28;1312;-50
2021/07/10 05:01:37;;;;;;;;;;;;;;;27.11;41.76;97726.91;5049402;28;1416;-51
2021/07/10 05:04:03;;;;;;;;;;;;;;;27.23;41.12;97727.69;5048034;28;1620;-52
2021/07/10 05:06:28;;;;;;;;;;;;;;;27.16;41.65;97730.00;5048640;28;1663;-51
2021/07/10 05:08:53;;;;;;;;;;;;;;;27.06;41.48;97728.25;5046946;28;1578;-52
2021/07/10 05:11:18;;;;;;;;;;;;;;;27.00;41.74;97726.91;5048423;28;1902;-50
2021/07/10 05:13:43;;;;;;;;;;;;;;;26.86;42.27;97722.75;5048963;28;1321;-52
2021/07/10 05:16:09;;;;;;;;;;;;;;;26.93;41.67;97723.91;5047729;28;1635;-51
2021/07/10 05:18:34;;;;;;;;;;;;;;;27.18;41.34;97720.13;5048866;28;1410;-51
2021/07/10 05:20:59;;;;;;;;;;;;;;;27.22;41.39;97726.00;5046521;28;1502;-50
2021/07/10 05:23:24;;;;;;;;;;;;;;;27.33;40.92;97723.28;5047823;28;1121;-52
2021/07/10 05:25:49;;;;;;;;;;;;;;;27.17;41.32;97728.19;5047705;28;1814;-50
2021/07/10 05:28:15;;;;;;;;;;;;;;;27.26;41.14;97727.44;5047556;28;1142;-50
2021/07/10 05:30:40;;;;;;;;;;;;;;;27.31;41.00;97725.25;5049655;28;1975;-51
2021/07/10 05:33:05;;;;;;;;;;;;;;;27.22;41.33;97726.00;5044991;28;1730;-51
2021/07/10 05:35:30;;;;;;;;;;;;;;;27.02;42.08;97724.13;5050708;28;1412;-51
2021/07/10 05:37:56;;;;;;;;;;;;;;;27.07;41.60;97714.88;5046844;28;1248;-51
2021/07/10 05:40:21;;;;;;;;;;;;;;;26.97;41.94;97714.75;5049110;28;2237;-51
2021/07/10 05:42:49;;;;;;;;;;;;;;;27.14;41.53;97717.84;5046974;28;1711;-50
2021/07/10 05:45:21;;;;;;;;;;;;;;;27.29;41.23;97721.88;5048934;28;1386;-50
2021/07/10 05:47:47;;;;;;;;;;;;;;;27.25;41.44;97725.75;5044017;28;1605;-51
2021/07/10 05:50:12;;;;;;;;;;;;;;;27.21;41.59;97726.97;5047910;28;1903;-51
2021/07/10 05:52:37;;;;;;;;;;;;;;;27.22;41.91;97721.56;5048894;28;1482;-52
2021/07/10 05:55:03;;;;;;;;;;;;;;;27.16;41.77;97726.50;5048244;28;1636;-52
2021/07/10 05:57:28;;;;;;;;;;;;;;;27.18;41.83;97732.53;5048922;28;1503;-52
2021/07/10 05:59:53;;;;;;;;;;;;;;;27.00;42.21;97724.25;5047273;28;1172;-51
2021/07/10 06:02:18;;;;;;;;;;;;;;;27.01;42.05;97728.56;5046267;28;1600;-51
2021/07/10 06:04:43;;;;;;;;;;;;;;;27.12;41.76;97733.88;5046630;28;1441;-52
2021/07/10 06:07:09;;;;;;;;;;;;;;;27.16;41.77;97737.94;5045579;28;1599;-51
2021/07/10 06:09:34;;;;;;;;;;;;;;;27.28;41.42;97736.09;5048563;28;1476;-52
2021/07/10 06:12:00;;;;;;;;;;;;;;;26.98;42.54;97739.41;5046149;28;1918;-51
2021/07/10 06:14:25;;;;;;;;;;;;;;;26.81;42.50;97740.78;5049812;28;1228;-51
2021/07/10 06:16:50;;;;;;;;;;;;;;;26.67;42.89;97743.72;5047861;28;1519;-51
2021/07/10 06:19:15;;;;;;;;;;;;;;;26.94;42.38;97741.50;5048765;28;1249;-52
2021/07/10 06:21:40;;;;;;;;;;;;;;;26.86;42.46;97741.28;5048713;28;1408;-52
2021/07/10 06:24:06;;;;;;;;;;;;;;;26.63;43.14;97747.56;5045798;28;1567;-52
2021/07/10 06:26:31;;;;;;;;;;;;;;;26.58;43.49;97747.94;5049848;28;1527;-51
2021/07/10 06:28:56;;;;;;;;;;;;;;;26.58;43.30;97752.38;5045135;28;1121;-52
2021/07/10 06:31:21;;;;;;;;;;;;;;;26.61;43.28;97752.97;5049498;28;1901;-52
2021/07/10 06:33:46;;;;;;;;;;;;;;;26.65;43.39;97746.47;5045738;28;1676;-52
2021/07/10 06:36:12;;;;;;;;;;;;;;;26.52;43.53;97740.47;5047793;28;1344;-52
2021/07/10 06:38:37;;;;;;;;;;;;;;;26.69;43.33;97747.06;5045316;28;1571;-51
2021/07/10 06:41:02;;;;;;;;;;;;;;;26.42;43.79;97739.53;5047666;28;1157;-51
2021/07/10 06:43:27;;;;;;;;;;;;;;;26.65;43.36;97743.00;5047456;28;1417;-52
2021/07/10 06:45:53;;;;;;;;;;;;;;;26.43;44.04;97746.50;5045188;28;1451;-52
2021/07/10 06:48:18;;;;;;;;;;;;;;;26.42;44.14;97750.94;5026771;28;1600;-51
2021/07/10 06:50:43;;;;;;;;;;;;;;;26.31;44.25;97745.66;5047348;28;1930;-51
2021/07/10 06:53:08;;;;;;;;;;;;;;;26.48;43.99;97743.50;5045812;28;1176;-52
2021/07/10 06:55:34;;;;;;;;;;;;;;;26.26;44.52;97754.91;5048628;28;1611;-51
2021/07/10 06:57:59;;;;;;;;;;;;;;;26.28;44.54;97748.53;5046693;28;1300;-51
2021/07/10 07:00:24;;;;;;;;;;;;;;;26.40;44.29;97752.06;5047920;28;1188;-52
2021/07/10 07:02:49;;;;;;;;;;;;;;;26.47;44.16;97747.13;5043275;28;1612;-52
2021/07/10 07:05:14;;;;;;;;;;;;;;;26.43;44.22;97742.06;5048027;28;1350;-51
2021/07/10 07:07:40;;;;;;;;;;;;;;;26.34;44.33;97740.13;5038967;28;1834;-52
2021/07/10 07:10:06;;;;;;;;;;;;;;;26.40;43.98;97742.31;5045037;28;1903;-52
2021/07/10 07:12:31;;;;;;;;;;;;;;;26.20;44.75;97740.34;5042950;28;1640;-51
2021/07/10 07:14:57;;;;;;;;;;;;;;;26.39;44.05;97735.34;5051643;28;1483;-51
2021/07/10 07:17:22;;;;;;;;;;;;;;;26.45;43.96;97734.00;5053215;28;1324;-51
2021/07/10 07:19:47;;;;;;;;;;;;;;;26.37;44.38;97739.84;5050375;28;1571;-51
2021/07/10 07:22:12;;;;;;;;;;;;;;;26.53;43.93;97736.03;5051050;28;1408;-51
2021/07/10 07:24:37;;;;;;;;;;;;;;;26.43;44.25;97733.28;5049784;28;1709;-51
2021/07/10 07:27:03;;;;;;;;;;;;;;;26.77;43.09;97743.81;4989630;28;1374;-52
2021/07/10 07:29:28;;;;;;;;;;;;;;;26.61;43.57;97745.03;5053323;28;1165;-52
2021/07/10 07:31:53;;;;;;;;;;;;;;;26.52;44.12;97752.88;5052924;28;1966;-52
2021/07/10 07:34:18;;;;;;;;;;;;;;;26.85;43.11;97747.50;5051731;28;1557;-52
2021/07/10 07:36:44;;;;;;;;;;;;;;;26.31;44.43;97735.06;5052991;28;1299;-51
2021/07/10 07:39:09;;;;;;;;;;;;;;;26.68;43.55;97748.03;5052215;28;1597;-51
2021/07/10 07:41:34;;;;;;;;;;;;;;;26.51;44.18;97749.38;5052955;28;1176;-52
2021/07/10 07:44:00;;;;;;;;;;;;;;;26.43;43.99;97747.34;5052653;28;1216;-51
2021/07/10 07:46:25;;;;;;;;;;;;;;;26.74;43.51;97744.06;5051146;28;1593;-52
2021/07/10 07:48:50;;;;;;;;;;;;;;;26.44;44.13;97743.72;5053191;28;1121;-52
2021/07/10 07:51:15;;;;;;;;;;;;;;;26.42;44.49;97735.09;5052842;28;1953;-51
2021/07/10 07:53:43;;;;;;;;;;;;;;;26.57;43.77;97740.97;5051050;28;1571;-52
2021/07/10 07:56:09;;;;;;;;;;;;;;;26.29;44.41;97738.78;5051491;28;1319;-51
2021/07/10 07:58:34;;;;;;;;;;;;;;;26.51;44.32;97743.25;5053055;28;1168;-51
2021/07/10 08:00:59;;;;;;;;;;;;;;;26.54;44.07;97743.00;5052875;28;1266;-51
2021/07/10 08:03:24;;;;;;;;;;;;;;;26.84;43.15;97739.69;5051153;28;1554;-51
2021/07/10 08:05:50;;;;;;;;;;;;;;;26.51;43.76;97740.59;5050221;28;1541;-52
2021/07/10 08:08:15;;;;;;;;;;;;;;;26.64;43.92;97739.50;5052411;28;1227;-52
2021/07/10 08:10:40;;;;;;;;;;;;;;;26.64;43.73;97736.03;5051454;28;1913;-52
2021/07/10 08:13:05;;;;;;;;;;;;;;;26.70;43.59;97738.16;5052244;28;1204;-52
2021/07/10 08:15:30;;;;;;;;;;;;;;;26.53;43.99;97725.44;5052512;28;1390;-51
2021/07/10 08:17:56;;;;;;;;;;;;;;;26.85;43.40;97720.19;5051483;28;1050;-52
2021/07/10 08:20:21;;;;;;;;;;;;;;;26.65;43.50;97725.31;5050545;28;1615;-52
2021/07/10 08:22:46;;;;;;;;;;;;;;;26.57;44.19;97719.81;5052011;28;1335;-52
2021/07/10 08:25:12;;;;;;;;;;;;;;;26.60;43.61;97716.91;5051353;28;1576;-51
2021/07/10 08:27:37;;;;;;;;;;;;;;;26.47;44.07;97707.44;5050625;28;1739;-51
2021/07/10 08:30:05;;;;;;;;;;;;;;;26.57;43.79;97711.88;5034222;28;1898;-51
2021/07/10 08:32:30;;;;;;;;;;;;;;;26.81;43.54;97710.84;5051310;28;1117;-51
2021/07/10 08:34:55;;;;;;;;;;;;;;;26.62;43.73;97715.00;5050836;28;1593;-51
2021/07/10 08:37:21;;;;;;;;;;;;;;;26.42;44.30;97713.94;5051986;28;1252;-51
2021/07/10 08:39:46;;;;;;;;;;;;;;;26.41;44.17;97709.63;5051629;28;1640;-52
2021/07/10 08:42:11;;;;;;;;;;;;;;;26.46;44.42;97714.50;5052241;28;1236;-51
2021/07/10 08:44:38;;;;;;;;;;;;;;;26.30;44.81;97704.28;5051326;28;1311;-51
2021/07/10 08:47:04;;;;;;;;;;;;;;;26.48;44.04;97704.69;5049932;28;1593;-52
2021/07/10 08:49:29;;;;;;;;;;;;;;;26.56;43.89;97704.91;5051565;28;1228;-52
2021/07/10 08:51:54;;;;;;;;;;;;;;;26.87;43.10;97700.63;5051498;28;1985;-51
2021/07/10 08:54:19;;;;;;;;;;;;;;;26.38;44.27;97701.03;5050477;28;1593;-51
2021/07/10 08:56:45;;;;;;;;;;;;;;;26.46;44.28;97705.75;5051628;28;1363;-52
2021/07/10 08:59:10;;;;;;;;;;;;;;;26.69;43.99;97704.72;5052261;28;1153;-51
2021/07/10 09:01:36;;;;;;;;;;;;;;;26.37;44.50;97700.19;5050357;28;1695;-51
2021/07/10 09:04:01;;;;;;;;;;;;;;;26.58;44.34;97702.97;5051556;28;1058;-52
2021/07/10 09:06:26;;;;;;;;;;;;;;;26.42;44.69;97700.72;5049010;28;1566;-52
2021/07/10 09:08:52;;;;;;;;;;;;;;;26.68;43.80;97701.25;5050376;28;1636;-52
2021/07/10 09:11:17;;;;;;;;;;;;;;;26.61;43.91;97699.22;5051128;28;1898;-52
2021/07/10 09:13:49;;;;;;;;;;;;;;;26.32;44.87;97702.38;5049979;28;1616;-51
2021/07/10 09:16:24;;;;;;;;;;;;;;;26.34;44.55;97700.44;5051476;28;1358;-52
2021/07/10 09:18:50;;;;;;;;;;;;;;;26.93;43.18;97694.78;5051592;28;1173;-51
2021/07/10 09:21:34;;;;;;;;;;;;;;;26.57;44.07;97693.34;5050969;28;1263;-51
2021/07/10 09:23:59;;;;;;;;;;;;;;;26.57;44.03;97700.44;5048551;28;1592;-52
2021/07/10 09:26:26;;;;;;;;;;;;;;;26.53;43.98;97691.06;5051499;28;1408;-51
2021/07/10 09:29:11;;;;;;;;;;;;;;;26.94;43.27;97683.28;5032496;28;1051;-51
2021/07/10 09:31:37;;;;;;;;;;;;;;;26.84;43.34;97678.84;5049382;28;1973;-51
2021/07/10 09:34:13;;;;;;;;;;;;;;;26.55;44.37;97676.78;5050370;28;1201;-52
2021/07/10 09:36:48;;;;;;;;;;;;;;;26.46;44.67;97668.72;5050600;28;1367;-52
2021/07/10 09:39:14;;;;;;;;;;;;;;;26.91;43.41;97664.97;5050036;28;1620;-51
2021/07/10 09:41:39;;;;;;;;;;;;;;;26.80;43.62;97659.75;5032785;28;1546;-52
2021/07/10 09:44:14;;;;;;;;;;;;;;;26.52;44.37;97649.72;5050429;28;1137;-51
2021/07/10 09:46:39;;;;;;;;;;;;;;;26.53;44.43;97646.09;5050209;28;1311;-51
2021/07/10 09:49:20;;;;;;;;;;;;;;;26.96;43.42;97633.69;5049372;28;1593;-51
2021/07/10 09:51:45;;;;;;;;;;;;;;;26.51;44.38;97640.09;5050172;28;1981;-51
2021/07/10 09:54:12;;;;;;;;;;;;;;;26.62;44.33;97643.56;5049555;28;1589;-49
2021/07/10 09:56:56;;;;;;;;;;;;;;;27.21;42.79;97629.00;5050459;28;1292;-49
2021/07/10 09:59:23;;;;;;;;;;;;;;;27.55;41.71;97633.13;5049654;28;1160;-49
2021/07/10 10:01:48;;;;;;;;;;;;;;;27.80;41.19;97633.69;5050433;28;1090;-49
2021/07/10 10:04:21;;;;;;;;;;;;;;;27.91;41.21;97627.47;5049572;28;1604;-49
2021/07/10 10:06:46;;;;;;;;;;;;;;;27.76;41.09;97619.88;5031644;28;1678;-49
2021/07/10 10:09:17;;;;;;;;;;;;;;;27.99;40.83;97612.56;5049615;28;1580;-49
2021/07/10 10:11:49;;;;;;;;;;;;;;;28.10;40.82;97615.09;5048854;28;1971;-49
2021/07/10 10:14:14;;;;;;;;;;;;;;;28.13;40.41;97608.69;5048952;28;1300;-49
2021/07/10 10:16:45;;;;;;;;;;;;;;;28.05;40.89;97605.88;5049216;28;1592;-49
2021/07/10 10:19:10;;;;;;;;;;;;;;;28.19;40.19;97594.88;5049573;28;1101;-49
2021/07/10 10:21:35;;;;;;;;;;;;;;;28.21;40.47;97592.94;5047325;28;1480;-49
2021/07/10 10:24:02;;;;;;;;;;;;;;;28.27;40.27;97600.34;5043143;28;1663;-49
2021/07/10 10:26:27;;;;;;;;;;;;;;;28.33;40.06;97585.72;5047935;28;1487;-49
2021/07/10 10:28:52;;;;;;;;;;;;;;;28.31;40.19;97593.81;5027267;28;1639;-49
2021/07/10 10:31:17;;;;;;;;;;;;;;;28.33;40.07;97583.06;5029869;28;1918;-49
2021/07/10 10:33:45;;;;;;;;;;;;;;;28.15;40.24;97584.69;5028666;28;1316;-49
2021/07/10 10:36:11;;;;;;;;;;;;;;;28.25;40.34;97582.88;5047430;28;1552;-48
2021/07/10 10:38:36;;;;;;;;;;;;;;;28.33;40.16;97580.41;5012391;28;1581;-49
2021/07/10 10:41:01;;;;;;;;;;;;;;;28.17;40.63;97583.56;5048147;28;1364;-49
2021/07/10 10:43:26;;;;;;;;;;;;;;;28.23;40.22;97576.91;5048134;28;1253;-49
2021/07/10 10:45:51;;;;;;;;;;;;;;;28.22;40.23;97576.06;5046525;28;1582;-49
2021/07/10 10:48:36;;;;;;;;;;;;;;;28.28;40.39;97578.16;5045810;28;1584;-49
2021/07/10 10:51:01;;;;;;;;;;;;;;;28.41;39.86;97572.63;5045202;28;1926;-49
2021/07/10 10:53:26;;;;;;;;;;;;;;;28.38;40.22;97569.41;5045621;28;1042;-49
2021/07/10 10:55:51;;;;;;;;;;;;;;;28.41;39.77;97569.97;5047144;28;1821;-49
2021/07/10 10:58:26;;;;;;;;;;;;;;;27.99;40.78;97562.19;5045891;28;1415;-49
2021/07/10 11:01:07;;;;;;;;;;;;;;;28.15;40.76;97558.19;5024775;28;3294;-49
2021/07/10 11:03:41;;;;;;;;;;;;;;;28.94;38.94;97558.13;5041308;28;2014;-49
2021/07/10 11:06:06;;;;;;;;;;;;;;;29.11;38.61;97550.25;5043542;28;2090;-49
2021/07/10 11:08:33;;;;;;;;;;;;;;;29.22;38.34;97548.38;5044509;28;1983;-49
2021/07/10 11:10:58;;;;;;;;;;;;;;;28.81;39.01;97545.09;5044416;28;2091;-48
2021/07/10 11:13:36;;;;;;;;;;;;;;;29.23;38.29;97542.97;5045314;28;2136;-49
2021/07/10 11:16:05;;;;;;;;;;;;;;;29.08;38.47;97537.25;5043600;28;2011;-50
2021/07/10 11:18:46;;;;;;;;;;;;;;;27.59;41.81;97540.97;5046064;28;1948;-49
2021/07/10 11:21:12;;;;;;;;;;;;;;;28.62;39.73;97533.53;5026423;28;1961;-49
2021/07/10 11:23:37;;;;;;;;;;;;;;;29.00;38.86;97523.03;5044663;28;2483;-50
2021/07/10 11:26:06;;;;;;;;;;;;;;;28.96;38.88;97513.66;5045442;28;1987;-49
2021/07/10 11:28:31;;;;;;;;;;;;;;;29.00;38.65;97505.28;5044581;28;1877;-50
2021/07/10 11:30:57;;;;;;;;;;;;;;;28.85;38.97;97506.69;5044495;28;1973;-50
2021/07/10 11:33:41;;;;;;;;;;;;;;;29.06;38.83;97507.34;5044553;28;1916;-49
2021/07/10 11:36:25;;;;;;;;;;;;;;;29.01;38.83;97493.69;5044553;28;1999;-48
2021/07/10 11:38:50;;;;;;;;;;;;;;;29.03;38.78;97494.38;5042658;28;1927;-49
2021/07/10 11:41:26;;;;;;;;;;;;;;;29.09;38.74;97496.44;5044491;28;2000;-49
2021/07/10 11:43:51;;;;;;;;;;;;;;;27.98;41.42;97494.25;5044727;28;1920;-48
2021/07/10 11:46:16;;;;;;;;;;;;;;;28.58;39.98;97487.00;5027244;28;2172;-49
2021/07/10 11:48:42;;;;;;;;;;;;;;;28.79;39.45;97486.84;5040529;28;1943;-50
2021/07/10 11:51:08;;;;;;;;;;;;;;;28.74;39.36;97480.28;5044684;28;1948;-50
2021/07/10 11:53:33;;;;;;;;;;;;;;;28.92;39.09;97481.28;5043340;28;1991;-49
2021/07/10 11:55:58;;;;;;;;;;;;;;;28.97;38.86;97476.34;5045079;28;2127;-49
2021/07/10 11:58:24;;;;;;;;;;;;;;;28.90;39.08;97473.44;5046933;28;2441;-49
2021/07/10 12:00:49;;;;;;;;;;;;;;;29.09;38.68;97461.94;5048726;28;1955;-50
2021/07/10 12:03:23;;;;;;;;;;;;;;;28.95;39.07;97465.03;5048211;28;2123;-49
2021/07/10 12:05:48;;;;;;;;;;;;;;;29.10;38.87;97463.59;5046187;28;1916;-49
2021/07/10 12:08:14;;;;;;;;;;;;;;;29.29;38.33;97461.84;5031187;28;2270;-50
2021/07/10 12:10:40;;;;;;;;;;;;;;;29.08;38.67;97462.06;5047024;28;2237;-50
2021/07/10 12:13:05;;;;;;;;;;;;;;;29.07;39.07;97457.72;5049306;28;1947;-49
2021/07/10 12:15:31;;;;;;;;;;;;;;;28.91;38.90;97459.19;5044526;28;3883;-49
2021/07/10 12:17:57;;;;;;;;;;;;;;;29.12;38.70;97461.63;5049030;28;1944;-48
2021/07/10 12:20:26;;;;;;;;;;;;;;;28.85;39.44;97450.94;5046236;28;1915;-50
2021/07/10 12:22:58;;;;;;;;;;;;;;;29.14;38.54;97449.03;5047833;28;1908;-51
2021/07/10 12:25:30;;;;;;;;;;;;;;;29.02;38.87;97452.03;5046094;28;1911;-49
2021/07/10 12:27:56;;;;;;;;;;;;;;;29.26;38.49;97448.84;5047838;28;1947;-50
2021/07/10 12:30:38;;;;;;;;;;;;;;;29.05;38.74;97441.09;5029965;28;2047;-50
2021/07/10 12:33:03;;;;;;;;;;;;;;;29.23;38.50;97446.47;5047793;28;1940;-51
2021/07/10 12:35:28;;;;;;;;;;;;;;;28.95;39.07;97441.16;5048324;28;1916;-49
2021/07/10 12:37:56;;;;;;;;;;;;;;;29.14;38.54;97437.56;5045825;28;1920;-50
2021/07/10 12:40:21;;;;;;;;;;;;;;;29.00;39.05;97438.91;5028066;28;2381;-50
2021/07/10 12:42:46;;;;;;;;;;;;;;;29.02;38.75;97434.28;5027403;28;2471;-49
2021/07/10 12:45:11;;;;;;;;;;;;;;;29.10;39.00;97431.72;5030164;28;1961;-49
2021/07/10 12:47:38;;;;;;;;;;;;;;;29.11;38.73;97427.25;5046845;28;1967;-49
2021/07/10 12:50:03;;;;;;;;;;;;;;;29.04;39.03;97420.84;5046081;28;2014;-49
2021/07/10 12:52:29;;;;;;;;;;;;;;;29.24;38.47;97419.78;5046177;28;4162;-50